Time;durP1;ratioP1;P1;durP2;ratioP2;P2;SDS_P1;SDS_P2;PMS_P1;PMS_P2;Temp;Humidity;BMP_temperature;BMP_pressure;BME280_temperature;BME280_humidity;BME280_pressure;Samples;Min_cycle;Max_cycle;Signal;HPM_P1;HPM_P2
2021/04/01 00:00:09;;;;;;;7.82;4.40;;;;;;;;;;5134250;27;20052;-60
2021/04/01 00:02:34;;;;;;;8.10;4.88;;;;;;;;;;5135118;27;20419;-60
2021/04/01 00:04:59;;;;;;;8.95;4.53;;;;;;;;;;5130533;27;20110;-60
2021/04/01 00:07:25;;;;;;;8.45;4.55;;;;;;;;;;5125217;27;20027;-59
2021/04/01 00:09:50;;;;;;;9.00;4.97;;;;;;;;;;5128333;27;20515;-58
2021/04/01 00:12:16;;;;;;;9.07;4.82;;;;;;;;;;5121667;27;20023;-60
2021/04/01 00:14:41;;;;;;;8.73;4.82;;;;;;;;;;5130036;27;20480;-60
2021/04/01 00:17:07;;;;;;;6.47;4.95;;;;;;;;;;5118845;27;20038;-60
2021/04/01 00:19:33;;;;;;;9.23;4.78;;;;;;;;;;5124869;27;20019;-60
2021/04/01 00:21:58;;;;;;;9.32;4.90;;;;;;;;;;5118162;27;20030;-60
2021/04/01 00:24:23;;;;;;;8.57;4.88;;;;;;;;;;5110968;27;20023;-60
2021/04/01 00:26:49;;;;;;;7.60;4.65;;;;;;;;;;5120629;27;20036;-60
2021/04/01 00:29:14;;;;;;;8.68;4.70;;;;;;;;;;5118298;27;20088;-59
2021/04/01 00:31:39;;;;;;;10.02;4.50;;;;;;;;;;5115332;27;20034;-59
2021/04/01 00:34:04;;;;;;;7.47;4.55;;;;;;;;;;5131312;27;20030;-60
2021/04/01 00:36:30;;;;;;;8.55;4.90;;;;;;;;;;5133657;27;20525;-60
2021/04/01 00:38:55;;;;;;;8.32;4.85;;;;;;;;;;5116225;27;20030;-60
2021/04/01 00:41:20;;;;;;;11.27;5.13;;;;;;;;;;5133201;27;20023;-60
2021/04/01 00:43:45;;;;;;;7.28;5.13;;;;;;;;;;5131069;27;20015;-59
2021/04/01 00:46:11;;;;;;;9.60;4.57;;;;;;;;;;5133930;27;20015;-59
2021/04/01 00:48:36;;;;;;;10.85;5.00;;;;;;;;;;5117223;27;20023;-59
2021/04/01 00:51:01;;;;;;;7.85;4.65;;;;;;;;;;5130524;27;20132;-59
2021/04/01 00:53:26;;;;;;;6.20;4.57;;;;;;;;;;5123951;27;20035;-59
2021/04/01 00:55:52;;;;;;;8.68;4.85;;;;;;;;;;5133216;27;20015;-59
2021/04/01 00:58:17;;;;;;;5.75;4.50;;;;;;;;;;5119860;27;20054;-60
2021/04/01 01:00:42;;;;;;;8.20;4.88;;;;;;;;;;5113233;28;20023;-60
2021/04/01 01:03:08;;;;;;;6.82;4.60;;;;;;;;;;5117708;27;20035;-60
2021/04/01 01:05:35;;;;;;;7.72;4.60;;;;;;;;;;5130948;27;20015;-60
2021/04/01 01:08:02;;;;;;;7.70;5.03;;;;;;;;;;5130667;27;20027;-60
2021/04/01 01:10:30;;;;;;;6.45;4.18;;;;;;;;;;5133040;27;20488;-60
2021/04/01 01:12:56;;;;;;;7.43;4.85;;;;;;;;;;5132810;27;20022;-60
2021/04/01 01:15:22;;;;;;;8.02;5.30;;;;;;;;;;5116894;27;20075;-60
2021/04/01 01:17:48;;;;;;;8.77;4.80;;;;;;;;;;5113237;28;20023;-59
2021/04/01 01:20:14;;;;;;;9.02;5.38;;;;;;;;;;5112703;28;20027;-59
2021/04/01 01:22:41;;;;;;;8.27;4.82;;;;;;;;;;5121397;28;20030;-59
2021/04/01 01:25:07;;;;;;;8.65;5.30;;;;;;;;;;5117300;27;20027;-59
2021/04/01 01:27:32;;;;;;;8.93;4.75;;;;;;;;;;5121357;27;20370;-59
2021/04/01 01:29:58;;;;;;;10.25;5.28;;;;;;;;;;5112681;28;20028;-59
2021/04/01 01:32:23;;;;;;;9.48;5.50;;;;;;;;;;5116717;28;20023;-59
2021/04/01 01:34:48;;;;;;;7.43;4.75;;;;;;;;;;5130602;28;20034;-59
2021/04/01 01:37:14;;;;;;;8.32;5.15;;;;;;;;;;5132634;28;20484;-59
2021/04/01 01:39:39;;;;;;;10.02;5.20;;;;;;;;;;5129710;27;20476;-59
2021/04/01 01:42:05;;;;;;;7.45;5.05;;;;;;;;;;5134049;27;20098;-59
2021/04/01 01:44:30;;;;;;;9.48;5.75;;;;;;;;;;5134243;27;20110;-59
2021/04/01 01:46:56;;;;;;;7.43;4.95;;;;;;;;;;5131677;27;20190;-59
2021/04/01 01:49:21;;;;;;;9.93;5.07;;;;;;;;;;5116514;28;20107;-59
2021/04/01 01:51:46;;;;;;;8.75;5.65;;;;;;;;;;5128541;27;20035;-59
2021/04/01 01:54:11;;;;;;;9.27;5.47;;;;;;;;;;5119378;27;20038;-60
2021/04/01 01:56:38;;;;;;;8.88;5.25;;;;;;;;;;5125146;27;20030;-60
2021/04/01 01:59:03;;;;;;;10.60;5.20;;;;;;;;;;5116924;28;20023;-60
2021/04/01 02:01:28;;;;;;;11.65;5.75;;;;;;;;;;5116837;27;20031;-60
2021/04/01 02:03:54;;;;;;;9.57;5.22;;;;;;;;;;5119958;27;20051;-60
2021/04/01 02:06:20;;;;;;;9.73;5.15;;;;;;;;;;5129593;27;20063;-60
2021/04/01 02:08:46;;;;;;;9.68;5.22;;;;;;;;;;5125010;27;20023;-59
2021/04/01 02:11:11;;;;;;;8.05;5.00;;;;;;;;;;5135721;27;20363;-59
2021/04/01 02:13:36;;;;;;;8.20;5.40;;;;;;;;;;5123854;27;20032;-60
2021/04/01 02:16:02;;;;;;;11.30;5.68;;;;;;;;;;5135562;27;20023;-60
2021/04/01 02:18:28;;;;;;;9.80;4.90;;;;;;;;;;5136883;27;20474;-60
2021/04/01 02:20:55;;;;;;;7.93;5.72;;;;;;;;;;5131035;27;20031;-59
2021/04/01 02:23:20;;;;;;;8.35;4.97;;;;;;;;;;5121386;27;20034;-60
2021/04/01 02:25:46;;;;;;;8.00;5.32;;;;;;;;;;5134765;27;20027;-60
2021/04/01 02:28:12;;;;;;;9.50;5.05;;;;;;;;;;5136658;27;20049;-60
2021/04/01 02:30:38;;;;;;;9.00;5.22;;;;;;;;;;5135734;27;20046;-60
2021/04/01 02:33:03;;;;;;;10.38;5.05;;;;;;;;;;5136874;27;20367;-60
2021/04/01 02:35:29;;;;;;;9.35;5.38;;;;;;;;;;5123394;27;20093;-60
2021/04/01 02:37:54;;;;;;;10.88;6.25;;;;;;;;;;5134112;27;20459;-60
2021/04/01 02:40:20;;;;;;;8.93;5.65;;;;;;;;;;5135977;27;20019;-59
2021/04/01 02:42:45;;;;;;;9.25;5.72;;;;;;;;;;5132771;27;20028;-60
2021/04/01 02:45:11;;;;;;;11.40;5.47;;;;;;;;;;5120857;27;20027;-59
2021/04/01 02:47:37;;;;;;;9.68;5.70;;;;;;;;;;5116079;28;20027;-59
2021/04/01 02:50:04;;;;;;;10.18;5.90;;;;;;;;;;5133749;27;20221;-59
2021/04/01 02:52:29;;;;;;;10.30;5.75;;;;;;;;;;5135661;27;20038;-59
2021/04/01 02:54:54;;;;;;;10.75;5.80;;;;;;;;;;5119550;27;20031;-58
2021/04/01 02:57:19;;;;;;;14.70;6.43;;;;;;;;;;5133536;27;20062;-59
2021/04/01 02:59:45;;;;;;;10.45;5.55;;;;;;;;;;5135962;27;20450;-59
2021/04/01 03:02:11;;;;;;;8.65;5.65;;;;;;;;;;5121812;27;20049;-58
2021/04/01 03:04:37;;;;;;;11.15;6.10;;;;;;;;;;5117367;27;20035;-59
2021/04/01 03:07:03;;;;;;;8.73;5.63;;;;;;;;;;5134805;27;20382;-59
2021/04/01 03:09:28;;;;;;;10.95;6.28;;;;;;;;;;5115235;28;20020;-59
2021/04/01 03:11:53;;;;;;;7.68;5.20;;;;;;;;;;5126208;27;20040;-59
2021/04/01 03:14:18;;;;;;;8.63;5.40;;;;;;;;;;5132177;27;20029;-60
2021/04/01 03:16:44;;;;;;;10.73;6.07;;;;;;;;;;5122730;27;20098;-60
2021/04/01 03:19:09;;;;;;;9.25;5.30;;;;;;;;;;5119766;27;20455;-60
2021/04/01 03:21:34;;;;;;;10.07;5.40;;;;;;;;;;5122682;27;20019;-60
2021/04/01 03:23:59;;;;;;;11.40;5.72;;;;;;;;;;5112778;27;20028;-60
2021/04/01 03:26:25;;;;;;;10.70;5.95;;;;;;;;;;5115276;27;20016;-60
2021/04/01 03:28:50;;;;;;;9.40;5.78;;;;;;;;;;5130941;27;20026;-59
2021/04/01 03:31:15;;;;;;;9.80;6.00;;;;;;;;;;5122368;27;20061;-60
2021/04/01 03:33:40;;;;;;;11.35;6.45;;;;;;;;;;5132447;27;20023;-60
2021/04/01 03:36:06;;;;;;;10.85;5.50;;;;;;;;;;5135210;27;20454;-60
2021/04/01 03:38:31;;;;;;;10.10;5.97;;;;;;;;;;5135423;27;20011;-60
2021/04/01 03:40:56;;;;;;;8.55;6.03;;;;;;;;;;5132034;27;20019;-60
2021/04/01 03:43:23;;;;;;;11.05;5.93;;;;;;;;;;5126519;27;20023;-60
2021/04/01 03:45:49;;;;;;;11.30;6.18;;;;;;;;;;5116167;27;20069;-60
2021/04/01 03:48:14;;;;;;;10.10;5.45;;;;;;;;;;5114532;28;20058;-60
2021/04/01 03:50:40;;;;;;;11.57;6.18;;;;;;;;;;5132387;27;20574;-60
2021/04/01 03:53:06;;;;;;;11.32;6.47;;;;;;;;;;5118805;27;20034;-60
2021/04/01 03:55:44;;;;;;;9.38;5.85;;;;;;;;;;5132014;27;20060;-60
2021/04/01 04:00:40;;;;;;;11.32;6.05;;;;;;;;;;5134809;27;20132;-59
2021/04/01 04:16:13;;;;;;;11.15;6.05;;;;;;;;;;5134411;27;20431;-60
2021/04/01 04:18:38;;;;;;;11.93;5.88;;;;;;;;;;5132154;27;20068;-59
2021/04/01 04:21:03;;;;;;;10.20;5.95;;;;;;;;;;5121992;27;20011;-59
2021/04/01 04:23:29;;;;;;;10.63;5.82;;;;;;;;;;5125810;27;20238;-60
2021/04/01 04:25:56;;;;;;;10.20;5.20;;;;;;;;;;5115970;27;20020;-60
2021/04/01 04:28:27;;;;;;;11.38;6.10;;;;;;;;;;5113684;28;20024;-60
2021/04/01 04:30:53;;;;;;;11.80;6.10;;;;;;;;;;5126959;27;20022;-60
2021/04/01 04:33:18;;;;;;;8.75;5.28;;;;;;;;;;5132119;27;20019;-60
2021/04/01 04:35:43;;;;;;;10.45;6.00;;;;;;;;;;5132465;27;20027;-60
2021/04/01 04:38:09;;;;;;;10.95;6.85;;;;;;;;;;5122955;27;20020;-59
2021/04/01 04:40:34;;;;;;;12.93;7.05;;;;;;;;;;5113101;28;20411;-59
2021/04/01 04:42:59;;;;;;;11.13;6.47;;;;;;;;;;5129735;27;20027;-60
2021/04/01 04:45:25;;;;;;;9.85;6.18;;;;;;;;;;5120416;27;20790;-59
2021/04/01 04:47:50;;;;;;;11.35;6.13;;;;;;;;;;5118273;27;20047;-60
2021/04/01 04:50:15;;;;;;;10.50;6.50;;;;;;;;;;5128324;27;20031;-60
2021/04/01 04:52:41;;;;;;;13.77;6.70;;;;;;;;;;5120370;27;20016;-59
2021/04/01 04:55:09;;;;;;;11.88;6.68;;;;;;;;;;5109785;28;20022;-62
2021/04/01 05:05:40;;;;;;;12.30;6.60;;;;;;;;;;5119158;27;20073;-58
2021/04/01 05:08:05;;;;;;;13.63;6.70;;;;;;;;;;5123432;27;20027;-59
2021/04/01 05:10:30;;;;;;;13.35;6.60;;;;;;;;;;5133468;27;20022;-60
2021/04/01 05:13:07;;;;;;;11.88;6.55;;;;;;;;;;5127046;27;20450;-59
2021/04/01 05:15:33;;;;;;;12.10;7.10;;;;;;;;;;5112833;28;20061;-61
2021/04/01 05:18:14;;;;;;;13.73;7.07;;;;;;;;;;5113265;28;20486;-60
2021/04/01 05:20:40;;;;;;;15.18;6.72;;;;;;;;;;5120005;27;20026;-59
2021/04/01 05:23:12;;;;;;;11.15;6.40;;;;;;;;;;5132702;27;20015;-60
2021/04/01 05:25:38;;;;;;;12.20;7.40;;;;;;;;;;5125004;27;20073;-58
2021/04/01 05:30:43;;;;;;;10.05;6.57;;;;;;;;;;5129731;27;20458;-60
2021/04/01 05:33:09;;;;;;;16.77;7.68;;;;;;;;;;5132127;28;20061;-60
2021/04/01 05:35:34;;;;;;;16.90;7.82;;;;;;;;;;5131368;27;20019;-60
2021/04/01 05:37:59;;;;;;;11.35;7.10;;;;;;;;;;5132395;28;20019;-59
2021/04/01 05:40:25;;;;;;;12.68;7.40;;;;;;;;;;5131918;27;20027;-59
2021/04/01 05:42:51;;;;;;;13.73;7.05;;;;;;;;;;5119666;27;20027;-60
2021/04/01 05:47:54;;;;;;;11.93;6.68;;;;;;;;;;5132971;28;20379;-60
2021/04/01 06:03:40;;;;;;;17.05;7.70;;;;;;;;;;5130520;28;20424;-60
2021/04/01 06:06:13;;;;;;;14.80;7.00;;;;;;;;;;5133013;27;20414;-60
2021/04/01 06:08:42;;;;;;;17.77;7.15;;;;;;;;;;5120501;27;20459;-60
2021/04/01 06:11:07;;;;;;;24.10;7.18;;;;;;;;;;5115592;28;20031;-60
2021/04/01 06:13:38;;;;;;;17.70;7.93;;;;;;;;;;5111767;27;20016;-60
2021/04/01 06:16:04;;;;;;;14.93;6.70;;;;;;;;;;5112519;28;20156;-60
2021/04/01 06:18:32;;;;;;;20.60;7.80;;;;;;;;;;5112311;28;20023;-60
2021/04/01 06:20:58;;;;;;;17.38;7.57;;;;;;;;;;5112334;28;20108;-60
2021/04/01 06:23:27;;;;;;;17.52;6.93;;;;;;;;;;5109316;28;20077;-59
2021/04/01 06:25:53;;;;;;;19.08;8.00;;;;;;;;;;5123528;27;20027;-59
2021/04/01 06:28:22;;;;;;;18.80;8.20;;;;;;;;;;5135652;27;20032;-60
2021/04/01 06:30:53;;;;;;;21.90;8.20;;;;;;;;;;5119115;27;20117;-59
2021/04/01 06:33:24;;;;;;;19.05;8.48;;;;;;;;;;5113381;28;20027;-60
2021/04/01 06:36:01;;;;;;;18.30;7.93;;;;;;;;;;5128133;27;20011;-59
2021/04/01 06:38:34;;;;;;;20.33;8.70;;;;;;;;;;5117338;27;20019;-60
2021/04/01 06:41:11;;;;;;;20.35;7.93;;;;;;;;;;5124062;27;20019;-60
2021/04/01 06:43:48;;;;;;;23.80;8.60;;;;;;;;;;5120779;27;20030;-59
2021/04/01 06:46:15;;;;;;;20.08;8.50;;;;;;;;;;5126894;27;20119;-59
2021/04/01 06:51:30;;;;;;;17.65;8.18;;;;;;;;;;5115105;27;20044;-59
2021/04/01 06:54:21;;;;;;;22.27;8.52;;;;;;;;;;5127456;27;20030;-59
2021/04/01 06:56:53;;;;;;;18.63;8.57;;;;;;;;;;5118029;27;20020;-59
2021/04/01 06:59:36;;;;;;;20.85;9.77;;;;;;;;;;5134332;27;20019;-60
2021/04/01 07:04:43;;;;;;;20.88;8.98;;;;;;;;;;5131969;27;20011;-59
2021/04/01 07:07:14;;;;;;;15.68;8.48;;;;;;;;;;5135447;27;20119;-59
2021/04/01 07:10:19;;;;;;;20.50;8.55;;;;;;;;;;5115008;28;20016;-59
2021/04/01 07:12:35;;;;;;;20.15;8.70;;;;;;;;;;5124992;27;20115;-59
2021/04/01 07:15:08;;;;;;;16.55;8.82;;;;;;;;;;5118630;27;20027;-60
2021/04/01 07:17:41;;;;;;;16.58;8.93;;;;;;;;;;5115416;28;20054;-60
2021/04/01 07:20:24;;;;;;;19.58;8.70;;;;;;;;;;5114711;28;20556;-59
2021/04/01 07:47:00;;;;;;;17.58;9.45;;;;;;;;;;5135248;27;20034;-59
2021/04/01 07:49:27;;;;;;;18.67;8.68;;;;;;;;;;5124918;27;20219;-59
2021/04/01 07:54:46;;;;;;;19.52;9.50;;;;;;;;;;5130857;27;20019;-60
2021/04/01 07:57:23;;;;;;;13.30;8.63;;;;;;;;;;5113955;28;20019;-60
2021/04/01 07:59:55;;;;;;;14.82;8.85;;;;;;;;;;5114120;28;20099;-60
2021/04/01 08:05:21;;;;;;;16.58;8.35;;;;;;;;;;5097402;27;20035;-58
2021/04/01 08:07:49;;;;;;;18.85;9.57;;;;;;;;;;5134619;27;20019;-59
2021/04/01 08:10:16;;;;;;;18.13;9.50;;;;;;;;;;5116434;27;20032;-63
2021/04/01 08:12:48;;;;;;;17.10;9.13;;;;;;;;;;5127264;27;20010;-63
2021/04/01 08:15:17;;;;;;;15.65;9.00;;;;;;;;;;5130198;27;20481;-63
2021/04/01 08:20:19;;;;;;;15.15;9.43;;;;;;;;;;5125606;27;20027;-62
2021/04/01 08:22:52;;;;;;;21.02;9.00;;;;;;;;;;5134766;27;20042;-62
2021/04/01 08:25:19;;;;;;;17.55;9.38;;;;;;;;;;5130568;27;20049;-61
2021/04/01 08:28:01;;;;;;;19.88;10.02;;;;;;;;;;5127149;27;20023;-63
2021/04/01 08:31:10;;;;;;;18.15;9.30;;;;;;;;;;5134101;27;20106;-63
2021/04/01 08:33:31;;;;;;;15.57;9.63;;;;;;;;;;5123668;27;20023;-63
2021/04/01 08:35:57;;;;;;;19.60;10.40;;;;;;;;;;5129337;27;20294;-63
2021/04/01 08:38:23;;;;;;;19.33;8.90;;;;;;;;;;5133721;27;20011;-63
2021/04/01 08:40:49;;;;;;;20.98;9.63;;;;;;;;;;5119228;27;20022;-63
2021/04/01 08:43:32;;;;;;;16.00;9.30;;;;;;;;;;5114980;27;20026;-63
2021/04/01 08:46:07;;;;;;;17.33;10.27;;;;;;;;;;5134099;27;20017;-62
2021/04/01 08:48:32;;;;;;;;;;;;;;;;;;5133998;27;20468;-62
2021/04/01 08:51:14;;;;;;;17.58;9.30;;;;;;;;;;5133475;27;20440;-63
2021/04/01 08:54:02;;;;;;;16.27;8.90;;;;;;;;;;5113626;27;20030;-59
2021/04/01 08:56:36;;;;;;;17.65;8.68;;;;;;;;;;5132722;27;20118;-59
2021/04/01 08:59:06;;;;;;;16.23;7.95;;;;;;;;;;5133644;27;20015;-59
2021/04/01 09:01:32;;;;;;;15.65;9.57;;;;;;;;;;5125332;27;20019;-58
2021/04/01 09:03:58;;;;;;;15.82;8.63;;;;;;;;;;5128974;27;20513;-59
2021/04/01 09:06:26;;;;;;;20.00;10.02;;;;;;;;;;5124857;27;20529;-58
2021/04/01 09:08:54;;;;;;;15.43;9.48;;;;;;;;;;5123011;27;20035;-59
2021/04/01 09:11:30;;;;;;;20.40;10.30;;;;;;;;;;5112361;28;20016;-59
2021/04/01 09:13:55;;;;;;;16.33;9.95;;;;;;;;;;5122818;27;20114;-59
2021/04/01 09:16:30;;;;;;;18.00;9.68;;;;;;;;;;5112852;28;20510;-59
2021/04/01 09:19:05;;;;;;;18.50;10.85;;;;;;;;;;5117939;27;20497;-59
2021/04/01 09:21:32;;;;;;;20.02;10.50;;;;;;;;;;5119342;27;20077;-59
2021/04/01 09:23:57;;;;;;;18.23;10.18;;;;;;;;;;5109695;28;20554;-59
2021/04/01 09:26:26;;;;;;;19.20;10.68;;;;;;;;;;5123033;28;20130;-59
2021/04/01 09:28:59;;;;;;;17.40;10.55;;;;;;;;;;5133232;27;20138;-59
2021/04/01 09:31:25;;;;;;;22.77;11.57;;;;;;;;;;5131080;28;20440;-59
2021/04/01 09:33:50;;;;;;;18.23;10.38;;;;;;;;;;5130211;27;20058;-59
2021/04/01 09:36:21;;;;;;;17.00;10.80;;;;;;;;;;5132788;28;20493;-58
2021/04/01 09:38:54;;;;;;;18.33;9.48;;;;;;;;;;5132841;27;20470;-60
2021/04/01 09:41:29;;;;;;;19.58;10.05;;;;;;;;;;5117080;27;20020;-59
2021/04/01 09:43:54;;;;;;;17.92;11.55;;;;;;;;;;5124508;28;20019;-59
2021/04/01 09:46:21;;;;;;;19.23;11.10;;;;;;;;;;5132974;27;20595;-58
2021/04/01 09:49:04;;;;;;;16.50;10.43;;;;;;;;;;5132151;27;20019;-60
2021/04/01 09:51:31;;;;;;;18.33;10.73;;;;;;;;;;5118533;28;20097;-59
2021/04/01 09:53:56;;;;;;;19.45;12.85;;;;;;;;;;5117281;27;20054;-59
2021/04/01 09:56:24;;;;;;;19.75;11.98;;;;;;;;;;5112113;28;20062;-59
2021/04/01 09:58:51;;;;;;;18.67;11.85;;;;;;;;;;5112566;28;20305;-59
2021/04/01 10:03:54;;;;;;;18.88;11.77;;;;;;;;;;5134270;27;20027;-59
2021/04/01 10:06:26;;;;;;;19.85;12.32;;;;;;;;;;5133797;27;20144;-58
2021/04/01 10:08:51;;;;;;;20.08;12.45;;;;;;;;;;5136778;27;20389;-59
2021/04/01 10:11:23;;;;;;;20.75;11.98;;;;;;;;;;5125431;27;20020;-59
2021/04/01 10:14:00;;;;;;;22.52;13.68;;;;;;;;;;5113379;28;20024;-58
2021/04/01 10:16:25;;;;;;;20.23;10.88;;;;;;;;;;5116421;27;20004;-58
2021/04/01 10:18:51;;;;;;;23.60;15.02;;;;;;;;;;5129776;27;20106;-59
2021/04/01 10:21:17;;;;;;;24.50;14.63;;;;;;;;;;5128125;27;20422;-59
2021/04/01 10:23:43;;;;;;;21.88;13.27;;;;;;;;;;5125949;27;20026;-58
2021/04/01 10:26:09;;;;;;;24.60;13.65;;;;;;;;;;5115841;28;20019;-59
2021/04/01 10:28:41;;;;;;;26.17;15.73;;;;;;;;;;5116252;28;20019;-59
2021/04/01 10:31:15;;;;;;;22.27;12.50;;;;;;;;;;5118503;27;20446;-58
2021/04/01 10:33:46;;;;;;;24.52;13.15;;;;;;;;;;5121404;27;20269;-59
2021/04/01 10:36:13;;;;;;;21.00;13.23;;;;;;;;;;5125700;27;20363;-58
2021/04/01 10:38:40;;;;;;;22.20;14.50;;;;;;;;;;5121906;27;20015;-60
2021/04/01 10:41:12;;;;;;;24.17;14.75;;;;;;;;;;5129522;27;20057;-58
2021/04/01 10:43:41;;;;;;;24.70;15.43;;;;;;;;;;5131104;27;20134;-59
2021/04/01 10:46:14;;;;;;;25.15;14.48;;;;;;;;;;5136448;27;20098;-59
2021/04/01 10:48:43;;;;;;;22.85;15.10;;;;;;;;;;5135337;27;20027;-58
2021/04/01 10:51:09;;;;;;;23.55;15.07;;;;;;;;;;5122718;27;20047;-58
2021/04/01 10:53:39;;;;;;;25.60;16.27;;;;;;;;;;5129579;27;20038;-59
2021/04/01 10:56:05;;;;;;;23.38;15.57;;;;;;;;;;5117347;27;20024;-58
2021/04/01 10:58:31;;;;;;;25.17;18.25;;;;;;;;;;5130093;27;20027;-59
2021/04/01 11:00:57;;;;;;;23.50;15.80;;;;;;;;;;5125908;27;20031;-57
2021/04/01 11:03:30;;;;;;;23.63;17.17;;;;;;;;;;5123588;27;20491;-58
2021/04/01 11:05:56;;;;;;;26.35;18.48;;;;;;;;;;5115769;27;20019;-58
2021/04/01 11:08:27;;;;;;;26.60;17.90;;;;;;;;;;5126526;27;20038;-58
2021/04/01 11:10:59;;;;;;;28.10;19.25;;;;;;;;;;5129508;27;20016;-59
2021/04/01 11:13:51;;;;;;;28.17;19.15;;;;;;;;;;5112536;27;20027;-58
2021/04/01 11:16:18;;;;;;;26.30;18.98;;;;;;;;;;5110798;27;20039;-59
2021/04/01 11:18:45;;;;;;;27.45;18.23;;;;;;;;;;5114951;28;20168;-59
2021/04/01 11:21:11;;;;;;;26.52;19.30;;;;;;;;;;5129905;27;20016;-58
2021/04/01 11:23:36;;;;;;;27.40;17.83;;;;;;;;;;5132815;27;20148;-59
2021/04/01 11:26:02;;;;;;;27.73;17.75;;;;;;;;;;5119308;27;20103;-59
2021/04/01 11:28:34;;;;;;;26.88;16.88;;;;;;;;;;5134970;27;20034;-59
2021/04/01 11:31:00;;;;;;;28.35;18.70;;;;;;;;;;5121030;27;20026;-59
2021/04/01 11:33:26;;;;;;;27.40;18.98;;;;;;;;;;5118878;27;20593;-60
2021/04/01 11:36:06;;;;;;;27.52;19.00;;;;;;;;;;5113834;28;20092;-58
2021/04/01 11:38:40;;;;;;;29.08;20.15;;;;;;;;;;5133191;27;20030;-58
2021/04/01 11:41:07;;;;;;;27.17;17.67;;;;;;;;;;5119941;27;20486;-59
2021/04/01 11:43:32;;;;;;;29.10;18.73;;;;;;;;;;5120487;27;20026;-59
2021/04/01 11:46:10;;;;;;;28.30;19.25;;;;;;;;;;5119249;27;20019;-59
2021/04/01 11:48:35;;;;;;;26.17;18.50;;;;;;;;;;5128561;27;20015;-59
2021/04/01 11:51:00;;;;;;;28.02;17.63;;;;;;;;;;5125441;27;20490;-59
2021/04/01 11:53:26;;;;;;;26.70;18.65;;;;;;;;;;5131844;27;20031;-59
2021/04/01 11:55:52;;;;;;;28.15;18.65;;;;;;;;;;5134157;27;20011;-59
2021/04/01 11:58:18;;;;;;;26.52;19.10;;;;;;;;;;5133583;27;20044;-59
2021/04/01 12:00:45;;;;;;;27.80;19.30;;;;;;;;;;5132141;27;20015;-59
2021/04/01 12:03:15;;;;;;;30.60;19.20;;;;;;;;;;5126967;27;20047;-58
2021/04/01 12:05:46;;;;;;;27.20;19.92;;;;;;;;;;5113702;27;20012;-59
2021/04/01 12:08:12;;;;;;;29.08;20.33;;;;;;;;;;5124021;27;20056;-58
2021/04/01 12:10:37;;;;;;;26.98;19.20;;;;;;;;;;5129350;27;20019;-59
2021/04/01 12:13:03;;;;;;;26.55;17.13;;;;;;;;;;5121903;27;20030;-58
2021/04/01 12:15:36;;;;;;;25.90;19.80;;;;;;;;;;5124364;27;20068;-59
2021/04/01 12:18:04;;;;;;;26.58;20.35;;;;;;;;;;5133566;27;20027;-59
2021/04/01 12:20:29;;;;;;;30.00;19.63;;;;;;;;;;5129868;27;20484;-59
2021/04/01 12:22:55;;;;;;;27.70;18.75;;;;;;;;;;5132646;27;20042;-59
2021/04/01 12:25:21;;;;;;;28.85;20.23;;;;;;;;;;5129846;27;20023;-58
2021/04/01 12:27:51;;;;;;;26.95;18.98;;;;;;;;;;5132859;27;20019;-59
2021/04/01 12:30:28;;;;;;;26.05;19.13;;;;;;;;;;5132520;27;20030;-59
2021/04/01 12:32:53;;;;;;;23.63;16.25;;;;;;;;;;5133232;27;20110;-59
2021/04/01 12:35:19;;;;;;;26.98;18.40;;;;;;;;;;5113402;27;20145;-59
2021/04/01 12:37:55;;;;;;;23.73;15.63;;;;;;;;;;5113506;27;20027;-60
2021/04/01 12:40:21;;;;;;;23.15;14.70;;;;;;;;;;5113171;27;20090;-59
2021/04/01 12:42:46;;;;;;;21.17;13.73;;;;;;;;;;5121485;27;20051;-59
2021/04/01 12:45:22;;;;;;;20.80;14.18;;;;;;;;;;5129608;27;20015;-59
2021/04/01 12:47:52;;;;;;;21.52;12.93;;;;;;;;;;5127955;27;20015;-58
2021/04/01 12:50:17;;;;;;;20.83;13.38;;;;;;;;;;5122694;27;20063;-58
2021/04/01 12:52:47;;;;;;;23.00;15.23;;;;;;;;;;5127607;27;20489;-59
2021/04/01 12:55:24;;;;;;;25.27;16.10;;;;;;;;;;5119226;27;20073;-59
2021/04/01 12:57:49;;;;;;;24.23;15.88;;;;;;;;;;5133620;27;20434;-60
2021/04/01 13:00:24;;;;;;;24.75;15.68;;;;;;;;;;5133550;27;20040;-59
2021/04/01 13:02:50;;;;;;;23.30;16.17;;;;;;;;;;5133698;27;20441;-58
2021/04/01 13:05:19;;;;;;;25.40;17.25;;;;;;;;;;5118927;27;20106;-59
2021/04/01 13:12:59;;;;;;;31.33;18.48;;;;;;;;;;5132445;27;20019;-59
2021/04/01 13:15:25;;;;;;;27.60;16.30;;;;;;;;;;5129733;27;20080;-60
2021/04/01 13:17:50;;;;;;;22.25;14.75;;;;;;;;;;5123583;27;20272;-60
2021/04/01 13:20:16;;;;;;;12.77;7.00;;;;;;;;;;5132090;27;20069;-59
2021/04/01 13:22:56;;;;;;;20.35;12.90;;;;;;;;;;5132484;27;20018;-59
2021/04/01 13:25:22;;;;;;;23.10;13.75;;;;;;;;;;5124711;27;20055;-59
2021/04/01 13:27:49;;;;;;;21.70;13.50;;;;;;;;;;5125190;27;20406;-59
2021/04/01 13:30:14;;;;;;;21.85;13.05;;;;;;;;;;5125468;27;20026;-60
2021/04/01 13:32:49;;;;;;;14.35;6.32;;;;;;;;;;5121524;27;20023;-58
2021/04/01 13:36:04;;;;;;;21.75;12.23;;;;;;;;;;5122688;27;20488;-59
2021/04/01 13:38:08;;;;;;;22.23;12.80;;;;;;;;;;5125179;27;20034;-59
2021/04/01 13:40:38;;;;;;;22.42;12.85;;;;;;;;;;5126204;27;20091;-58
2021/04/01 13:43:04;;;;;;;21.13;13.70;;;;;;;;;;5127162;27;20023;-58
2021/04/01 13:45:29;;;;;;;23.08;13.45;;;;;;;;;;5123009;27;20524;-59
2021/04/01 13:48:04;;;;;;;18.42;10.00;;;;;;;;;;5116981;27;20043;-59
2021/04/01 13:50:31;;;;;;;;;;;;;;;;;;5120835;27;20044;-59
2021/04/01 13:55:34;;;;;;;15.13;9.00;;;;;;;;;;5113463;28;20031;-59
2021/04/01 14:11:31;;;;;;;16.15;10.02;;;;;;;;;;5128808;27;20098;-59
2021/04/01 14:13:57;;;;;;;18.50;9.50;;;;;;;;;;5133823;27;20110;-59
2021/04/01 14:16:22;;;;;;;21.55;10.75;;;;;;;;;;5133808;27;20018;-59
2021/04/01 14:18:49;;;;;;;17.63;8.73;;;;;;;;;;5124839;27;20027;-59
2021/04/01 14:21:16;;;;;;;19.92;10.88;;;;;;;;;;5115871;27;20019;-59
2021/04/01 14:23:42;;;;;;;19.85;10.55;;;;;;;;;;5113154;28;20613;-59
2021/04/01 14:26:17;;;;;;;18.98;10.63;;;;;;;;;;5115718;28;20026;-59
2021/04/01 14:28:42;;;;;;;20.70;11.80;;;;;;;;;;5120794;27;20023;-60
2021/04/01 14:31:08;;;;;;;17.48;10.93;;;;;;;;;;5116030;27;20483;-59
2021/04/01 14:33:34;;;;;;;14.77;8.55;;;;;;;;;;5116311;27;20309;-59
2021/04/01 14:35:59;;;;;;;15.05;5.63;;;;;;;;;;5116747;27;20027;-59
2021/04/01 14:38:25;;;;;;;15.20;7.97;;;;;;;;;;5132939;27;20362;-59
2021/04/01 14:43:21;;;;;;;15.82;9.00;;;;;;;;;;5131917;27;20374;-59
2021/04/01 14:45:47;;;;;;;18.52;9.18;;;;;;;;;;5113826;28;20027;-59
2021/04/01 14:48:13;;;;;;;21.92;10.52;;;;;;;;;;5121242;27;20024;-60
2021/04/01 14:50:38;;;;;;;19.20;11.18;;;;;;;;;;5129606;27;20134;-60
2021/04/01 14:53:08;;;;;;;22.95;11.18;;;;;;;;;;5130445;27;20049;-60
2021/04/01 14:55:33;;;;;;;22.85;12.55;;;;;;;;;;5122003;27;20015;-59
2021/04/01 14:57:59;;;;;;;25.58;14.23;;;;;;;;;;5126779;27;20077;-59
2021/04/01 15:00:25;;;;;;;26.20;14.82;;;;;;;;;;5128725;27;20015;-60
2021/04/01 15:02:50;;;;;;;27.77;14.77;;;;;;;;;;5128538;27;20374;-59
2021/04/01 15:05:15;;;;;;;27.05;17.00;;;;;;;;;;5113079;27;20015;-59
2021/04/01 15:07:41;;;;;;;30.08;17.70;;;;;;;;;;5126745;27;20535;-61
2021/04/01 15:10:14;;;;;;;30.20;17.67;;;;;;;;;;5121977;27;20055;-59
2021/04/01 15:12:42;;;;;;;34.83;20.38;;;;;;;;;;5116691;27;20421;-59
2021/04/01 15:15:07;;;;;;;37.20;22.02;;;;;;;;;;5132076;27;20011;-59
2021/04/01 15:17:33;;;;;;;37.35;21.70;;;;;;;;;;5132861;27;20395;-60
2021/04/01 15:19:59;;;;;;;37.10;23.55;;;;;;;;;;5120425;27;20027;-59
2021/04/01 15:22:25;;;;;;;41.33;24.23;;;;;;;;;;5117050;27;20356;-60
2021/04/01 15:24:51;;;;;;;35.97;25.45;;;;;;;;;;5118559;27;20152;-59
2021/04/01 15:27:16;;;;;;;38.03;26.10;;;;;;;;;;5127370;27;20462;-54
2021/04/01 15:29:41;;;;;;;44.23;26.57;;;;;;;;;;5126918;27;20362;-57
2021/04/01 15:32:06;;;;;;;42.22;27.30;;;;;;;;;;5128421;27;20751;-55
2021/04/01 15:34:32;;;;;;;43.72;27.48;;;;;;;;;;5124830;27;20103;-57
2021/04/01 15:36:58;;;;;;;41.17;28.73;;;;;;;;;;5128740;27;20102;-59
2021/04/01 15:39:23;;;;;;;44.03;29.42;;;;;;;;;;5126154;27;20019;-59
2021/04/01 15:41:48;;;;;;;40.75;27.13;;;;;;;;;;5127560;27;20480;-57
2021/04/01 15:44:14;;;;;;;42.17;27.98;;;;;;;;;;5125215;27;20594;-57
2021/04/01 15:46:40;;;;;;;40.92;26.20;;;;;;;;;;5126162;27;20027;-52
2021/04/01 15:49:05;;;;;;;42.40;28.42;;;;;;;;;;5127177;27;20498;-59
2021/04/01 15:51:31;;;;;;;40.88;27.88;;;;;;;;;;5126450;27;20406;-59
2021/04/01 15:53:56;;;;;;;35.13;21.88;;;;;;;;;;5123907;27;20523;-58
2021/04/01 15:56:22;;;;;;;40.05;26.48;;;;;;;;;;5127234;27;20023;-58
2021/04/01 15:58:47;;;;;;;39.22;26.52;;;;;;;;;;5117662;27;20047;-58
2021/04/01 16:01:12;;;;;;;42.05;26.67;;;;;;;;;;5124950;27;20372;-59
2021/04/01 16:03:38;;;;;;;39.47;24.88;;;;;;;;;;5110785;27;20031;-59
2021/04/01 16:06:03;;;;;;;41.40;27.33;;;;;;;;;;5120033;27;20031;-57
2021/04/01 16:08:28;;;;;;;46.05;28.92;;;;;;;;;;5124149;27;20526;-58
2021/04/01 16:10:54;;;;;;;42.65;26.63;;;;;;;;;;5116404;27;20101;-58
2021/04/01 16:13:20;;;;;;;42.70;25.73;;;;;;;;;;5125750;27;20027;-58
2021/04/01 16:15:46;;;;;;;44.97;28.65;;;;;;;;;;5126425;27;20023;-58
2021/04/01 16:18:12;;;;;;;44.83;26.58;;;;;;;;;;5125472;27;20047;-59